»·PEaware :: N6065P KSDM-KFUL

N6065P :: KSDM-KFUL

FLIGHT INFORMATION

Flight Status: Arrived
Operator: Privately registered:
United States
More flights under this callsign
Pilot: Evens F. (14710)
Aircraft: CESSNA 172 SKYHAWK
(C172)
More flights by this aircraft type
Origin: KSDM Brown Mun
United States
Destination: KFUL Fullerton Mun
United States
More flights between these airports :: More routes between these airports
Route: MZB V23 SLI
File this flight plan on PilotEdge
Remarks:
Altitude:
(Current/Filed)
6,000ft
Speed:
(Current/Filed)
115kts
Departed: 20-Aug-19 08:39 PM
Arrived: 20-Aug-19 09:42 PM
Distance/Time
Traveled:
93nm/1:03
Distance/Time
To Go:
Arrived

Flight Plot

Page will automatically refresh every two minutes.


Map Options




Map Legend


Flown Route
Filed Route
Departure Airport
Arrival Airport
Navaid (VOR, NDB)
Fix

Horizontal Profiles

Position Reports

Time Latitude Longitude Heading Altitude Ground
Speed
20-Aug-19 19:32 32.570621 -116.984982 282 517ft 0kts
20-Aug-19 19:32 32.570621 -116.984982 282 517ft 0kts
20-Aug-19 19:34 32.570621 -116.984982 282 517ft 0kts
20-Aug-19 19:35 32.570621 -116.984982 282 517ft 0kts
20-Aug-19 19:35 32.570621 -116.984982 282 517ft 0kts
20-Aug-19 19:37 32.570621 -116.984982 282 517ft 0kts
20-Aug-19 19:37 32.570621 -116.984982 282 517ft 0kts
20-Aug-19 19:38 32.570621 -116.984982 282 517ft 0kts
20-Aug-19 19:40 32.570621 -116.984982 282 517ft 0kts
20-Aug-19 19:40 32.570621 -116.984982 282 517ft 0kts
20-Aug-19 19:41 32.570621 -116.984982 282 517ft 0kts
20-Aug-19 19:42 32.570621 -116.984982 282 517ft 0kts
20-Aug-19 19:43 32.570621 -116.984982 282 517ft 0kts
20-Aug-19 19:44 32.570621 -116.984982 282 517ft 0kts
20-Aug-19 19:45 32.570621 -116.984982 282 517ft 0kts
20-Aug-19 19:46 32.570621 -116.984982 282 517ft 0kts
20-Aug-19 19:47 32.570621 -116.984982 282 517ft 0kts
20-Aug-19 19:48 32.570621 -116.984982 282 517ft 0kts
20-Aug-19 19:49 32.570621 -116.984982 282 517ft 0kts
20-Aug-19 19:50 32.570621 -116.984982 282 517ft 0kts
20-Aug-19 19:51 32.570621 -116.984982 282 517ft 0kts
20-Aug-19 19:52 32.570621 -116.984982 282 517ft 0kts
20-Aug-19 19:53 32.570621 -116.984982 282 517ft 0kts
20-Aug-19 19:54 32.570621 -116.984982 282 517ft 0kts
20-Aug-19 19:55 32.570621 -116.984982 282 517ft 0kts
20-Aug-19 19:56 32.570621 -116.984982 282 517ft 0kts
20-Aug-19 19:57 32.570621 -116.984982 282 517ft 0kts
20-Aug-19 19:58 32.570621 -116.984982 282 517ft 0kts
20-Aug-19 19:59 32.570621 -116.984982 282 517ft 0kts
20-Aug-19 20:00 32.570621 -116.984982 282 517ft 0kts
20-Aug-19 20:01 32.570621 -116.984982 282 517ft 0kts
20-Aug-19 20:02 32.570621 -116.984982 282 517ft 0kts
20-Aug-19 20:03 32.570621 -116.984982 282 517ft 0kts
20-Aug-19 20:04 32.570621 -116.984982 282 517ft 0kts
20-Aug-19 20:05 32.570621 -116.984982 282 517ft 0kts
20-Aug-19 20:06 32.570621 -116.984982 282 517ft 0kts
20-Aug-19 20:07 32.570621 -116.984982 282 517ft 0kts
20-Aug-19 20:08 32.570921 -116.984634 109 517ft 6kts
20-Aug-19 20:09 32.570432 -116.984440 187 516ft 0kts
20-Aug-19 20:10 32.570432 -116.984440 187 516ft 0kts
20-Aug-19 20:11 32.570432 -116.984440 187 516ft 0kts
20-Aug-19 20:12 32.570432 -116.984440 187 516ft 0kts
20-Aug-19 20:13 32.570432 -116.984440 187 516ft 0kts
20-Aug-19 20:14 32.570432 -116.984440 187 516ft 0kts
20-Aug-19 20:15 32.570432 -116.984440 187 516ft 0kts
20-Aug-19 20:16 32.570432 -116.984440 187 516ft 0kts
20-Aug-19 20:17 32.570432 -116.984440 187 516ft 0kts
20-Aug-19 20:18 32.570432 -116.984440 187 516ft 0kts
20-Aug-19 20:19 32.570432 -116.984440 187 516ft 0kts
20-Aug-19 20:20 32.570432 -116.984440 187 516ft 0kts
20-Aug-19 20:21 32.570432 -116.984440 187 516ft 0kts
20-Aug-19 20:22 32.570432 -116.984440 187 516ft 0kts
20-Aug-19 20:23 32.570432 -116.984440 187 516ft 0kts
20-Aug-19 20:24 32.570432 -116.984440 187 516ft 0kts
20-Aug-19 20:25 32.570432 -116.984440 187 516ft 0kts
20-Aug-19 20:26 32.570432 -116.984440 187 516ft 0kts
20-Aug-19 20:27 32.570432 -116.984440 187 516ft 0kts
20-Aug-19 20:28 32.570432 -116.984440 187 516ft 0kts
20-Aug-19 20:29 32.570556 -116.983078 98 515ft 16kts
20-Aug-19 20:30 32.570085 -116.977494 95 509ft 12kts
20-Aug-19 20:31 32.569565 -116.971369 100 506ft 26kts
20-Aug-19 20:32 32.570876 -116.968299 6 506ft 0kts
20-Aug-19 20:33 32.570876 -116.968299 6 506ft 0kts
20-Aug-19 20:34 32.570876 -116.968299 6 506ft 0kts
20-Aug-19 20:35 32.570876 -116.968299 6 506ft 0kts
20-Aug-19 20:36 32.570876 -116.968299 6 506ft 0kts
20-Aug-19 20:37 32.571753 -116.969095 274 506ft 21kts
20-Aug-19 20:38 32.575006 -116.989968 310 1302ft 71kts
20-Aug-19 20:39 32.590094 -117.006322 313 2251ft 75kts
20-Aug-19 20:40 32.606015 -117.023293 314 3143ft 80kts
20-Aug-19 20:41 32.622074 -117.041985 312 3959ft 85kts
20-Aug-19 20:42 32.637725 -117.060067 312 4853ft 74kts
20-Aug-19 20:43 32.652390 -117.076776 312 5611ft 73kts
20-Aug-19 20:44 32.668939 -117.095538 313 5995ft 106kts
20-Aug-19 20:45 32.692522 -117.122403 313 5984ft 123kts
20-Aug-19 20:46 32.715567 -117.148763 313 5967ft 108kts
20-Aug-19 20:47 32.737051 -117.173443 313 5965ft 106kts
20-Aug-19 20:48 32.758180 -117.197715 313 5968ft 105kts
20-Aug-19 20:49 32.779289 -117.221984 314 5964ft 105kts
20-Aug-19 20:50 32.806418 -117.235662 338 5963ft 107kts
20-Aug-19 20:51 32.834595 -117.247668 335 5962ft 107kts
20-Aug-19 20:52 32.862857 -117.259753 338 5961ft 108kts
20-Aug-19 20:53 32.891454 -117.271436 337 5957ft 108kts
20-Aug-19 20:54 32.920063 -117.283382 337 5957ft 109kts
20-Aug-19 20:55 32.948892 -117.295735 335 5958ft 115kts
20-Aug-19 20:56 32.981306 -117.309661 337 5952ft 127kts
20-Aug-19 20:57 33.015075 -117.323815 337 5948ft 129kts
20-Aug-19 20:58 33.048922 -117.338032 337 5944ft 129kts
20-Aug-19 20:59 33.082890 -117.352295 337 5943ft 129kts
20-Aug-19 21:00 33.116748 -117.366522 337 5993ft 127kts
20-Aug-19 21:01 33.150649 -117.380778 337 5995ft 130kts
20-Aug-19 21:02 33.184514 -117.395023 337 5992ft 131kts
20-Aug-19 21:03 33.219241 -117.409661 337 5980ft 132kts
20-Aug-19 21:04 33.251175 -117.429583 309 5969ft 130kts
20-Aug-19 21:05 33.276402 -117.460545 311 5992ft 129kts
20-Aug-19 21:06 33.302337 -117.490818 313 5999ft 130kts
20-Aug-19 21:07 33.328288 -117.521061 313 6000ft 130kts
20-Aug-19 21:08 33.354217 -117.551320 313 5995ft 130kts
20-Aug-19 21:09 33.380135 -117.581577 313 5994ft 130kts
20-Aug-19 21:10 33.406248 -117.611548 314 5989ft 130kts
20-Aug-19 21:11 33.432394 -117.641616 313 5988ft 130kts
20-Aug-19 21:12 33.458255 -117.671878 312 6024ft 129kts
20-Aug-19 21:13 33.484131 -117.702238 312 6011ft 130kts
20-Aug-19 21:14 33.509947 -117.732507 312 6010ft 130kts
20-Aug-19 21:15 33.535522 -117.762545 312 6006ft 128kts
20-Aug-19 21:16 33.560945 -117.792446 312 6005ft 127kts
20-Aug-19 21:17 33.588797 -117.817674 351 6001ft 131kts
20-Aug-19 21:18 33.625543 -117.815460 1 5993ft 132kts
20-Aug-19 21:19 33.662111 -117.809685 11 5940ft 137kts
20-Aug-19 21:20 33.699869 -117.798622 11 5262ft 138kts
20-Aug-19 21:21 33.736920 -117.787704 11 4582ft 137kts
20-Aug-19 21:22 33.773713 -117.776729 11 3991ft 129kts
20-Aug-19 21:23 33.805681 -117.766778 11 3981ft 112kts
20-Aug-19 21:24 33.831224 -117.758691 11 3676ft 132kts
20-Aug-19 21:30 33.837103 -117.757171 18 4378ft 62kts
20-Aug-19 21:31 33.862406 -117.748272 11 3724ft 103kts
20-Aug-19 21:33 33.891365 -117.739464 352 2984ft 99kts
20-Aug-19 21:34 33.901787 -117.762781 289 2995ft 88kts
20-Aug-19 21:35 33.907920 -117.793216 261 2997ft 100kts
20-Aug-19 21:36 33.901415 -117.826576 258 2504ft 86kts
20-Aug-19 21:37 33.896771 -117.850823 258 2377ft 82kts
20-Aug-19 21:38 33.890570 -117.883208 257 2009ft 105kts
20-Aug-19 21:39 33.884365 -117.915546 257 1601ft 101kts
20-Aug-19 21:40 33.878246 -117.947443 258 1005ft 85kts
20-Aug-19 21:41 33.873447 -117.972588 256 194ft 62kts
20-Aug-19 21:42 33.871678 -117.978155 169 93ft 6kts
20-Aug-19 21:43 33.870173 -117.978543 308 94ft 0kts
20-Aug-19 21:44 33.870589 -117.979080 172 93ft 0kts
20-Aug-19 21:45 33.874556 -117.966222 257 343ft 71kts
20-Aug-19 21:46 33.873123 -117.974240 257 146ft 56kts

Navigation Log

Ident Type
Flight plan parsing failed, navigation log unavailable